createdAt,value
2019-03-08T00:00:09.147Z,0.90
2019-03-08T00:02:37.513Z,0.80
2019-03-08T00:05:07.168Z,0.90
2019-03-08T00:07:35.799Z,0.90
2019-03-08T00:10:04.545Z,1.00
2019-03-08T00:12:33.139Z,0.80
2019-03-08T00:15:01.509Z,0.80
2019-03-08T00:17:29.995Z,0.70
2019-03-08T00:19:58.378Z,0.80
2019-03-08T00:22:27.547Z,1.00
2019-03-08T00:24:55.893Z,0.77
2019-03-08T00:27:24.277Z,1.10
2019-03-08T00:29:52.641Z,0.80
2019-03-08T00:32:21.017Z,0.80
2019-03-08T00:34:49.508Z,0.90
2019-03-08T00:37:18.177Z,0.73
2019-03-08T00:39:46.541Z,1.00
2019-03-08T00:42:16.138Z,0.90
2019-03-08T00:44:44.540Z,0.90
2019-03-08T00:47:13.610Z,0.80
2019-03-08T00:49:42.229Z,0.70
2019-03-08T00:52:11.832Z,0.87
2019-03-08T00:54:40.756Z,0.70
2019-03-08T00:57:09.099Z,0.93
2019-03-08T00:59:38.446Z,0.97
2019-03-08T01:02:07.205Z,0.80
2019-03-08T01:04:35.560Z,0.90
2019-03-08T01:07:04.731Z,0.90
2019-03-08T01:09:33.096Z,0.93
2019-03-08T01:12:01.514Z,0.80
2019-03-08T01:14:30.187Z,0.70
2019-03-08T01:16:58.555Z,0.73
2019-03-08T01:19:29.090Z,0.63
2019-03-08T01:21:57.497Z,0.80
2019-03-08T01:24:25.939Z,0.80
2019-03-08T01:26:54.695Z,1.00
2019-03-08T01:29:23.087Z,0.67
2019-03-08T01:31:53.461Z,0.70
2019-03-08T01:34:21.945Z,0.87
2019-03-08T01:36:50.593Z,0.80
2019-03-08T01:39:19.047Z,0.90
2019-03-08T01:41:47.403Z,0.80
2019-03-08T01:44:15.783Z,0.90
2019-03-08T01:46:44.147Z,0.80
2019-03-08T01:49:12.542Z,0.80
2019-03-08T01:51:40.895Z,0.80
2019-03-08T01:54:10.186Z,0.60
2019-03-08T01:56:38.539Z,0.97
2019-03-08T01:59:06.929Z,0.73
2019-03-08T02:01:35.305Z,0.80
2019-03-08T02:04:03.669Z,0.60
2019-03-08T02:06:32.042Z,0.70
2019-03-08T02:09:00.458Z,0.83
2019-03-08T02:11:28.888Z,0.77
2019-03-08T02:13:57.293Z,0.67
2019-03-08T02:16:25.668Z,0.60
2019-03-08T02:18:54.055Z,0.83
2019-03-08T02:21:22.428Z,0.70
2019-03-08T02:23:50.874Z,0.60
2019-03-08T02:26:19.306Z,0.70
2019-03-08T02:28:47.676Z,0.70
2019-03-08T02:31:16.050Z,0.60
2019-03-08T02:33:44.414Z,0.67
2019-03-08T02:36:12.794Z,0.80
2019-03-08T02:38:41.247Z,0.67
2019-03-08T02:41:09.673Z,0.70
2019-03-08T02:43:38.149Z,0.60
2019-03-08T02:46:06.516Z,0.63
2019-03-08T02:48:35.003Z,0.70
2019-03-08T02:51:03.516Z,0.70
2019-03-08T02:53:31.860Z,0.70
2019-03-08T02:56:00.261Z,0.73
2019-03-08T02:58:28.557Z,0.57
2019-03-08T03:00:57.141Z,0.53
2019-03-08T03:03:25.506Z,0.70
2019-03-08T03:05:53.991Z,0.73
2019-03-08T03:08:22.363Z,0.67
2019-03-08T03:10:50.752Z,0.67
2019-03-08T03:13:19.115Z,0.83
2019-03-08T03:15:47.487Z,0.53
2019-03-08T03:18:15.957Z,0.50
2019-03-08T03:20:44.377Z,0.70
2019-03-08T03:23:12.800Z,0.63
2019-03-08T03:25:41.157Z,0.73
2019-03-08T03:28:09.547Z,0.70
2019-03-08T03:30:37.910Z,0.63
2019-03-08T03:33:06.288Z,0.60
2019-03-08T03:35:34.654Z,0.70
2019-03-08T03:38:03.037Z,0.63
2019-03-08T03:40:31.399Z,0.70
2019-03-08T03:42:59.774Z,0.70
2019-03-08T03:45:28.123Z,0.60
2019-03-08T03:47:56.534Z,0.70
2019-03-08T03:50:24.885Z,0.70
2019-03-08T03:52:53.285Z,0.60
2019-03-08T03:55:21.744Z,0.50
2019-03-08T03:57:50.104Z,0.60
2019-03-08T04:00:24.748Z,0.60
2019-03-08T04:02:53.566Z,0.60
2019-03-08T04:05:21.920Z,0.50
2019-03-08T04:07:50.287Z,0.50
2019-03-08T04:10:18.778Z,0.53
2019-03-08T04:12:47.167Z,0.67
2019-03-08T04:15:16.861Z,0.63
2019-03-08T04:17:45.617Z,0.70
2019-03-08T04:20:20.671Z,0.70
2019-03-08T04:22:49.177Z,0.70
2019-03-08T04:25:17.675Z,0.60
2019-03-08T04:27:46.168Z,0.50
2019-03-08T04:30:19.769Z,0.60
2019-03-08T04:32:48.169Z,0.60
2019-03-08T04:35:16.543Z,0.43
2019-03-08T04:37:44.902Z,0.60
2019-03-08T04:40:14.100Z,0.50
2019-03-08T04:42:42.460Z,0.50
2019-03-08T04:45:15.049Z,0.40
2019-03-08T04:47:43.406Z,0.60
2019-03-08T04:50:12.923Z,0.70
2019-03-08T04:52:41.277Z,0.80
2019-03-08T04:55:17.002Z,0.70
2019-03-08T04:57:46.007Z,0.50
2019-03-08T05:00:15.855Z,0.60
2019-03-08T05:02:44.226Z,0.60
2019-03-08T05:05:12.540Z,0.60
2019-03-08T05:07:40.888Z,0.67
2019-03-08T05:10:17.230Z,0.50
2019-03-08T05:12:45.583Z,0.50
2019-03-08T05:15:13.986Z,0.50
2019-03-08T05:17:42.411Z,0.50
2019-03-08T05:20:11.124Z,0.50
2019-03-08T05:22:39.498Z,0.50
2019-03-08T05:25:12.772Z,0.53
2019-03-08T05:27:41.133Z,0.50
2019-03-08T05:30:15.452Z,0.60
2019-03-08T05:32:43.834Z,0.40
2019-03-08T05:35:12.881Z,0.50
2019-03-08T05:37:41.237Z,0.50
2019-03-08T05:40:12.025Z,0.50
2019-03-08T05:42:40.403Z,0.60
2019-03-08T05:45:14.354Z,0.60
2019-03-08T05:47:42.892Z,0.50
2019-03-08T05:50:12.042Z,0.40
2019-03-08T05:52:40.977Z,0.50
2019-03-08T05:55:10.664Z,0.60
2019-03-08T05:57:39.103Z,0.50
2019-03-08T06:00:15.401Z,0.60
2019-03-08T06:02:44.289Z,0.60
2019-03-08T06:05:12.625Z,0.60
2019-03-08T06:07:41.176Z,0.60
2019-03-08T06:10:33.585Z,0.50
2019-03-08T06:13:03.396Z,0.50
2019-03-08T06:15:32.165Z,0.53
2019-03-08T06:18:00.600Z,0.70
2019-03-08T06:20:29.007Z,0.50
2019-03-08T06:22:57.931Z,0.50
2019-03-08T06:25:26.416Z,0.40
2019-03-08T06:27:54.782Z,0.80
2019-03-08T06:30:23.217Z,0.50
2019-03-08T06:32:51.880Z,0.60
2019-03-08T06:35:20.406Z,0.60
2019-03-08T06:37:48.692Z,0.60
2019-03-08T06:40:17.050Z,0.50
2019-03-08T06:42:45.560Z,0.50
2019-03-08T06:45:17.478Z,0.70
2019-03-08T06:47:46.141Z,0.70
2019-03-08T06:50:15.460Z,0.60
2019-03-08T06:52:43.861Z,0.50
2019-03-08T06:55:13.629Z,0.80
2019-03-08T06:57:41.988Z,0.60
2019-03-08T07:00:19.918Z,0.73
2019-03-08T07:02:48.275Z,0.70
2019-03-08T07:05:16.646Z,0.60
2019-03-08T07:07:45.093Z,0.60
2019-03-08T07:10:30.055Z,0.70
2019-03-08T07:13:02.863Z,0.80
2019-03-08T07:15:30.895Z,0.70
2019-03-08T07:18:11.767Z,0.60
2019-03-08T07:20:53.763Z,0.70
2019-03-08T07:23:27.975Z,0.70
2019-03-08T07:26:01.318Z,0.60
2019-03-08T07:28:35.680Z,0.50
2019-03-08T07:31:11.623Z,0.50
2019-03-08T07:33:53.223Z,0.60
2019-03-08T07:36:30.976Z,0.50
2019-03-08T07:39:26.987Z,0.50
2019-03-08T07:42:09.962Z,0.50
2019-03-08T07:44:52.255Z,0.43
2019-03-08T07:47:29.351Z,0.40
2019-03-08T07:50:12.192Z,0.30
2019-03-08T07:53:04.186Z,0.37
2019-03-08T07:55:46.628Z,0.47
2019-03-08T07:58:25.772Z,0.40
2019-03-08T08:01:02.688Z,0.43
2019-03-08T08:03:49.022Z,0.60
2019-03-08T08:06:18.562Z,0.40
2019-03-08T08:08:54.972Z,0.30
2019-03-08T08:11:43.352Z,0.50
2019-03-08T08:14:16.276Z,0.30
2019-03-08T08:16:59.556Z,0.40
2019-03-08T08:19:47.264Z,0.40
2019-03-08T08:22:24.622Z,0.70
2019-03-08T08:24:57.664Z,0.77
2019-03-08T08:27:32.298Z,0.50
2019-03-08T08:33:01.393Z,0.60
2019-03-08T08:35:43.985Z,0.80
2019-03-08T08:38:20.256Z,0.70
2019-03-08T08:40:59.837Z,0.90
2019-03-08T08:43:39.881Z,0.80
2019-03-08T08:46:26.566Z,0.70
2019-03-08T08:48:57.005Z,0.70
2019-03-08T08:51:45.147Z,0.70
2019-03-08T08:54:26.451Z,0.60
2019-03-08T08:57:07.688Z,0.60
2019-03-08T08:59:40.957Z,0.67
2019-03-08T09:02:11.360Z,0.50
2019-03-08T09:04:44.195Z,0.40
2019-03-08T09:07:17.652Z,0.43
2019-03-08T09:09:57.485Z,0.30
2019-03-08T09:12:27.675Z,0.47
2019-03-08T09:14:57.742Z,0.50
2019-03-08T09:17:28.071Z,0.43
2019-03-08T09:20:11.476Z,0.40
2019-03-08T09:22:44.942Z,0.40
2019-03-08T09:25:17.914Z,0.30
2019-03-08T09:27:48.242Z,0.40
2019-03-08T09:30:34.781Z,0.30
2019-03-08T09:33:07.806Z,0.40
2019-03-08T09:35:41.487Z,0.20
2019-03-08T09:38:24.240Z,0.40
2019-03-08T09:41:10.695Z,0.30
2019-03-08T09:43:52.986Z,0.40
2019-03-08T09:46:31.587Z,0.30
2019-03-08T09:49:17.915Z,0.30
2019-03-08T09:51:57.075Z,0.27
2019-03-08T09:54:34.014Z,0.40
2019-03-08T09:57:04.528Z,0.40
2019-03-08T09:59:34.582Z,0.30
2019-03-08T10:02:04.841Z,0.20
2019-03-08T10:04:53.448Z,0.30
2019-03-08T10:07:26.327Z,0.40
2019-03-08T10:10:11.715Z,0.30
2019-03-08T10:12:47.484Z,0.33
2019-03-08T10:15:34.256Z,0.30
2019-03-08T10:18:04.673Z,0.40
2019-03-08T10:20:40.704Z,0.37
2019-03-08T10:23:25.879Z,0.40
2019-03-08T10:25:56.723Z,0.30
2019-03-08T10:28:33.204Z,0.30
2019-03-08T10:31:15.209Z,0.33
2019-03-08T10:33:46.769Z,0.50
2019-03-08T10:36:26.839Z,0.30
2019-03-08T10:39:02.760Z,0.37
2019-03-08T10:41:32.781Z,0.30
2019-03-08T10:44:11.796Z,0.37
2019-03-08T10:46:44.160Z,0.30
2019-03-08T10:49:17.335Z,0.40
2019-03-08T10:52:05.747Z,0.40
2019-03-08T10:54:36.228Z,0.40
2019-03-08T10:57:09.054Z,0.30
2019-03-08T10:59:48.631Z,0.40
2019-03-08T11:02:22.136Z,0.50
2019-03-08T11:04:52.178Z,0.40
2019-03-08T11:07:28.953Z,0.40
2019-03-08T11:10:04.660Z,0.50
2019-03-08T11:12:51.274Z,0.30
2019-03-08T11:15:24.454Z,0.40
2019-03-08T11:18:00.350Z,0.40
2019-03-08T11:20:36.954Z,0.40
2019-03-08T11:23:13.350Z,0.50
2019-03-08T11:25:52.832Z,0.43
2019-03-08T11:28:25.630Z,0.50
2019-03-08T11:31:01.579Z,0.50
2019-03-08T11:33:50.903Z,0.50
2019-03-08T11:36:24.703Z,0.40
2019-03-08T11:39:06.779Z,0.40
2019-03-08T11:41:36.837Z,0.40
2019-03-08T11:44:23.441Z,0.50
2019-03-08T11:47:10.613Z,0.53
2019-03-08T11:49:42.490Z,0.50
2019-03-08T11:52:31.264Z,0.50
2019-03-08T11:55:18.559Z,0.40
2019-03-08T11:58:08.256Z,0.50
2019-03-08T12:00:40.487Z,0.53
2019-03-08T12:03:27.819Z,0.60
2019-03-08T12:05:58.402Z,0.40
2019-03-08T12:08:36.848Z,0.50
2019-03-08T12:11:25.934Z,0.40
2019-03-08T12:14:05.706Z,0.30
2019-03-08T12:16:39.360Z,0.50
2019-03-08T12:19:14.554Z,0.40
2019-03-08T12:21:57.734Z,0.43
2019-03-08T12:24:27.934Z,0.50
2019-03-08T12:26:58.698Z,0.40
2019-03-08T12:29:45.688Z,0.40
2019-03-08T12:32:31.272Z,0.30
2019-03-08T12:35:16.295Z,0.43
2019-03-08T12:37:55.344Z,0.50
2019-03-08T12:40:31.951Z,0.40
2019-03-08T12:43:08.541Z,0.40
2019-03-08T12:45:56.670Z,0.50
2019-03-08T12:48:45.615Z,0.37
2019-03-08T12:51:33.901Z,0.30
2019-03-08T12:54:07.668Z,0.50
2019-03-08T12:56:38.002Z,0.37
2019-03-08T12:59:08.235Z,0.40
2019-03-08T13:01:47.327Z,0.50
2019-03-08T13:04:17.671Z,0.30
2019-03-08T13:07:05.625Z,0.40
2019-03-08T13:09:49.070Z,0.43
2019-03-08T13:12:17.776Z,0.33
2019-03-08T13:14:46.365Z,0.30
2019-03-08T13:17:14.767Z,0.50
2019-03-08T13:19:43.177Z,0.33
2019-03-08T13:22:12.335Z,0.43
2019-03-08T13:24:40.946Z,0.50
2019-03-08T13:27:10.504Z,0.40
2019-03-08T13:29:39.168Z,0.30
2019-03-08T13:32:08.311Z,0.60
2019-03-08T13:34:36.908Z,0.50
2019-03-08T13:37:05.423Z,0.50
2019-03-08T13:39:33.851Z,0.60
2019-03-08T13:42:03.012Z,0.50
2019-03-08T13:44:31.428Z,0.43
2019-03-08T13:47:01.663Z,0.50
2019-03-08T13:49:30.181Z,0.50
2019-03-08T13:51:58.632Z,0.40
2019-03-08T13:54:29.828Z,0.50
2019-03-08T13:56:58.175Z,0.50
2019-03-08T13:59:26.607Z,0.50
2019-03-08T14:01:55.484Z,0.57
2019-03-08T14:04:23.812Z,0.53
2019-03-08T14:06:52.376Z,0.60
2019-03-08T14:09:20.940Z,0.63
2019-03-08T14:11:50.976Z,0.53
2019-03-08T14:14:20.050Z,0.60
2019-03-08T14:16:49.866Z,0.53
2019-03-08T14:19:18.527Z,0.60
2019-03-08T14:21:47.011Z,0.70
2019-03-08T14:24:15.419Z,0.60
2019-03-08T14:26:43.976Z,0.50
2019-03-08T14:29:12.582Z,0.60
2019-03-08T14:31:49.362Z,0.60
2019-03-08T14:34:18.698Z,0.60
2019-03-08T14:36:47.411Z,0.60
2019-03-08T14:39:15.842Z,0.60
2019-03-08T14:41:45.989Z,0.80
2019-03-08T14:44:22.768Z,0.60
2019-03-08T14:46:56.505Z,0.60
2019-03-08T14:49:26.026Z,0.60
2019-03-08T14:51:54.463Z,0.50
2019-03-08T14:54:24.811Z,0.77
2019-03-08T14:56:53.195Z,0.83
2019-03-08T14:59:21.659Z,0.80
2019-03-08T15:01:50.983Z,0.77
2019-03-08T15:04:19.679Z,0.80
2019-03-08T15:06:48.606Z,1.10
2019-03-08T15:09:17.302Z,0.70
2019-03-08T15:11:45.754Z,0.90
2019-03-08T15:14:14.214Z,0.80
2019-03-08T15:16:49.541Z,0.80
2019-03-08T15:19:19.086Z,0.80
2019-03-08T15:21:48.688Z,0.77
2019-03-08T15:24:17.416Z,0.70
2019-03-08T15:26:45.847Z,0.83
2019-03-08T15:29:14.484Z,0.80
2019-03-08T15:31:48.547Z,0.70
2019-03-08T15:34:21.313Z,0.73
2019-03-08T15:36:46.946Z,0.80
2019-03-08T15:39:15.457Z,0.70
2019-03-08T15:41:43.846Z,0.80
2019-03-08T15:44:12.236Z,0.80
2019-03-08T15:46:40.907Z,0.80
2019-03-08T15:49:09.480Z,0.87
2019-03-08T15:51:37.843Z,0.70
2019-03-08T15:54:06.198Z,0.70
2019-03-08T15:56:34.865Z,0.90
2019-03-08T15:59:03.452Z,0.77
2019-03-08T16:01:32.673Z,0.80
2019-03-08T16:04:01.699Z,0.80
2019-03-08T16:06:31.927Z,1.00
2019-03-08T16:09:14.915Z,0.90
2019-03-08T16:11:43.268Z,0.70
2019-03-08T16:14:12.203Z,0.80
2019-03-08T16:16:40.659Z,1.00
2019-03-08T16:19:09.877Z,0.80
2019-03-08T16:21:38.541Z,0.67
2019-03-08T16:24:07.037Z,0.70
2019-03-08T16:26:37.163Z,1.00
2019-03-08T16:29:05.598Z,0.80
2019-03-08T16:31:36.003Z,0.80
2019-03-08T16:34:06.567Z,1.00
2019-03-08T16:36:36.946Z,0.70
2019-03-08T16:39:12.502Z,0.77
2019-03-08T16:42:02.186Z,0.67
2019-03-08T16:44:32.220Z,0.80
2019-03-08T16:47:12.337Z,0.90
2019-03-08T16:49:44.179Z,0.90
2019-03-08T16:52:14.521Z,0.70
2019-03-08T16:54:47.246Z,0.40
2019-03-08T16:57:17.226Z,0.80
2019-03-08T17:00:04.696Z,0.83
2019-03-08T17:02:51.265Z,0.90
2019-03-08T17:05:36.792Z,0.70
2019-03-08T17:08:19.607Z,1.00
2019-03-08T17:10:59.558Z,0.90
2019-03-08T17:13:46.225Z,0.90
2019-03-08T17:16:34.949Z,0.80
2019-03-08T17:19:11.730Z,0.80
2019-03-08T17:21:48.478Z,0.83
2019-03-08T17:24:28.068Z,0.83
2019-03-08T17:26:58.843Z,0.70
2019-03-08T17:29:29.615Z,0.83
2019-03-08T17:32:12.117Z,0.87
2019-03-08T17:34:54.811Z,0.90
2019-03-08T17:37:27.616Z,0.87
2019-03-08T17:40:09.977Z,0.90
2019-03-08T17:42:45.772Z,0.60
2019-03-08T17:45:15.799Z,0.60
2019-03-08T17:47:58.133Z,0.70
2019-03-08T17:50:36.855Z,1.00
2019-03-08T17:53:18.914Z,1.00
2019-03-08T17:56:04.493Z,0.87
2019-03-08T17:58:37.214Z,1.07
2019-03-08T18:01:22.479Z,1.00
2019-03-08T18:04:10.828Z,0.80
2019-03-08T18:06:49.683Z,1.20
2019-03-08T18:09:20.090Z,0.93
2019-03-08T18:11:50.198Z,0.80
2019-03-08T18:14:20.200Z,1.00
2019-03-08T18:17:08.577Z,0.70
2019-03-08T18:19:44.281Z,0.90
2019-03-08T18:22:29.317Z,0.87
2019-03-08T18:24:59.323Z,1.00
2019-03-08T18:27:29.782Z,0.70
2019-03-08T18:30:15.102Z,0.70
2019-03-08T18:32:45.157Z,0.80
2019-03-08T18:35:18.668Z,0.73
2019-03-08T18:37:48.700Z,0.67
2019-03-08T18:40:18.680Z,0.90
2019-03-08T18:42:57.762Z,0.77
2019-03-08T18:45:27.750Z,0.80
2019-03-08T18:47:57.788Z,0.70
2019-03-08T18:50:36.776Z,1.07
2019-03-08T18:53:15.866Z,0.90
2019-03-08T18:55:46.168Z,0.90
2019-03-08T18:58:16.187Z,0.70
2019-03-08T19:00:49.090Z,0.80
2019-03-08T19:03:21.967Z,0.80
2019-03-08T19:05:52.056Z,1.10
2019-03-08T19:08:22.064Z,0.70
2019-03-08T19:11:06.791Z,0.90
2019-03-08T19:13:36.795Z,0.70
2019-03-08T19:16:07.170Z,0.80
2019-03-08T19:18:39.635Z,0.70
2019-03-08T19:21:11.660Z,0.83
2019-03-08T19:23:44.851Z,0.90
2019-03-08T19:26:23.879Z,0.80
2019-03-08T19:28:53.980Z,0.70
2019-03-08T19:31:26.779Z,0.87
2019-03-08T19:34:03.254Z,0.77
2019-03-08T19:36:46.383Z,0.83
2019-03-08T19:39:22.031Z,0.70
2019-03-08T19:41:55.773Z,0.60
2019-03-08T19:44:29.841Z,0.77
2019-03-08T19:47:01.190Z,0.80
2019-03-08T19:49:47.509Z,0.80
2019-03-08T19:52:23.685Z,1.03
2019-03-08T19:54:53.820Z,1.13
2019-03-08T19:57:38.912Z,0.80
2019-03-08T20:00:23.759Z,0.90
2019-03-08T20:02:53.952Z,1.00
2019-03-08T20:05:29.711Z,1.00
2019-03-08T20:07:59.747Z,0.80
2019-03-08T20:10:29.912Z,1.00
2019-03-08T20:13:11.925Z,0.80
2019-03-08T20:15:58.279Z,0.83
2019-03-08T20:18:28.313Z,1.00
2019-03-08T20:21:14.812Z,0.70
2019-03-08T20:23:47.593Z,0.90
2019-03-08T20:26:34.160Z,0.93
2019-03-08T20:29:20.719Z,0.90
2019-03-08T20:32:09.211Z,0.90
2019-03-08T20:34:39.157Z,0.80
2019-03-08T20:37:14.951Z,0.80
2019-03-08T20:40:06.941Z,0.80
2019-03-08T20:42:36.951Z,0.80
2019-03-08T20:45:09.142Z,0.93
2019-03-08T20:47:37.548Z,0.83
2019-03-08T20:50:09.405Z,0.67
2019-03-08T20:52:37.769Z,0.60
2019-03-08T20:55:08.679Z,0.60
2019-03-08T20:57:37.037Z,0.70
2019-03-08T21:00:12.321Z,1.00
2019-03-08T21:02:40.737Z,0.80
2019-03-08T21:05:10.574Z,0.60
2019-03-08T21:07:39.105Z,0.90
2019-03-08T21:10:12.399Z,0.80
2019-03-08T21:12:40.755Z,0.80
2019-03-08T21:15:11.461Z,0.73
2019-03-08T21:17:39.849Z,0.60
2019-03-08T21:20:12.813Z,0.73
2019-03-08T21:22:41.355Z,0.90
2019-03-08T21:25:16.627Z,0.70
2019-03-08T21:27:45.157Z,0.60
2019-03-08T21:30:20.379Z,0.80
2019-03-08T21:32:48.751Z,0.80
2019-03-08T21:35:17.184Z,0.87
2019-03-08T21:37:45.777Z,0.80
2019-03-08T21:40:14.623Z,1.00
2019-03-08T21:42:43.175Z,1.10
2019-03-08T21:45:15.485Z,1.00
2019-03-08T21:47:43.903Z,0.90
2019-03-08T21:50:14.587Z,0.90
2019-03-08T21:52:43.548Z,0.80
2019-03-08T21:55:12.081Z,0.90
2019-03-08T21:57:40.559Z,1.10
2019-03-08T22:00:21.100Z,1.00
2019-03-08T22:02:49.403Z,1.00
2019-03-08T22:05:21.751Z,0.90
2019-03-08T22:07:50.488Z,1.13
2019-03-08T22:10:29.792Z,1.00
2019-03-08T22:12:58.156Z,1.00
2019-03-08T22:15:26.669Z,1.00
2019-03-08T22:17:54.997Z,1.10
2019-03-08T22:20:23.545Z,0.90
2019-03-08T22:22:52.062Z,1.27
2019-03-08T22:25:22.275Z,1.10
2019-03-08T22:27:50.809Z,1.00
2019-03-08T22:30:20.529Z,1.10
2019-03-08T22:32:48.903Z,1.00
2019-03-08T22:35:17.285Z,1.20
2019-03-08T22:37:45.651Z,1.13
2019-03-08T22:40:13.977Z,0.97
2019-03-08T22:42:42.363Z,1.20
2019-03-08T22:45:11.784Z,0.90
2019-03-08T22:47:40.156Z,1.03
2019-03-08T22:50:13.151Z,0.90
2019-03-08T22:52:41.537Z,0.90
2019-03-08T22:55:14.212Z,1.00
2019-03-08T22:57:42.710Z,1.20
2019-03-08T23:00:14.500Z,1.10
2019-03-08T23:02:42.870Z,1.00
2019-03-08T23:05:11.316Z,0.80
2019-03-08T23:07:39.758Z,1.00
2019-03-08T23:10:12.024Z,0.80
2019-03-08T23:12:40.520Z,0.90
2019-03-08T23:15:09.439Z,1.00
2019-03-08T23:17:38.698Z,0.83
2019-03-08T23:20:08.662Z,1.03
2019-03-08T23:22:38.433Z,1.07
2019-03-08T23:25:06.906Z,1.10
2019-03-08T23:27:48.889Z,1.00
2019-03-08T23:30:18.934Z,0.77
2019-03-08T23:32:48.072Z,0.80
2019-03-08T23:35:16.600Z,1.10
2019-03-08T23:37:44.942Z,0.90
2019-03-08T23:40:13.619Z,1.00
2019-03-08T23:42:42.005Z,1.00
2019-03-08T23:45:11.250Z,0.90
2019-03-08T23:47:39.888Z,0.97
2019-03-08T23:50:09.193Z,0.80
2019-03-08T23:52:37.813Z,1.03
2019-03-08T23:55:09.887Z,1.00
2019-03-08T23:57:39.004Z,0.80
